Coniston, Canada
Current Conditions -  °F | °C
As of 11:00 AM on Friday 21 Nov 2014 (Local Time) from CYSB Reporting Station
Few Clouds Few Clouds  
Wind Chill: -3°   Ceiling: Unl
Heat Index:   Visibility: 20mi
Dew Point:   Wind: 7mph
Humidity: 79%   Direction: 290°WNW
Pressure: 30.23"   Gusts: NA
Location:  46.49°N, 80.85°W
Report Text: CYSB 211600Z 29006KT 230V310 20SM FEW030 FEW180 M13/M16 A3023 RMK CU1CI1 SLP267
Loading
Personal Weather Stations






























Interactive Weather Map New forecast layout! Learn more

10-Day Weather Forecast

Advertisements
Track Severe Weather on mobile